Time;durP1;ratioP1;P1;durP2;ratioP2;P2;SDS_P1;SDS_P2;PMS_P1;PMS_P2;Temp;Humidity;BMP_temperature;BMP_pressure;BME280_temperature;BME280_humidity;BME280_pressure;Samples;Min_cycle;Max_cycle;Signal;HPM_P1;HPM_P2
2023/04/10 00:02:12;;;;;;;11.18;10.00;;;11.40;99.90;;;;;;5115637;28;20173;-58
2023/04/10 00:04:38;;;;;;;10.57;9.68;;;11.40;99.90;;;;;;5115339;28;20619;-57
2023/04/10 00:07:04;;;;;;;10.38;9.38;;;11.40;99.90;;;;;;5115359;28;20639;-58
2023/04/10 00:09:30;;;;;;;10.68;9.77;;;11.40;99.90;;;;;;5115346;28;20223;-59
2023/04/10 00:11:55;;;;;;;11.18;10.02;;;11.30;99.90;;;;;;5115063;28;20173;-59
2023/04/10 00:14:23;;;;;;;11.05;10.05;;;11.20;99.90;;;;;;5115088;28;20238;-58
2023/04/10 00:16:49;;;;;;;10.60;9.70;;;11.10;99.90;;;;;;5115066;28;20256;-58
2023/04/10 00:19:15;;;;;;;11.15;10.05;;;11.20;99.90;;;;;;5114971;28;20178;-59
2023/04/10 00:21:41;;;;;;;10.88;9.88;;;11.10;99.90;;;;;;5115148;28;20265;-59
2023/04/10 00:24:07;;;;;;;10.90;9.90;;;11.00;99.90;;;;;;5115054;28;20256;-59
2023/04/10 00:26:34;;;;;;;11.02;10.02;;;11.00;99.90;;;;;;5114986;28;20637;-58
2023/04/10 00:29:00;;;;;;;11.95;10.10;;;10.90;99.90;;;;;;5114842;28;20212;-59
2023/04/10 00:31:26;;;;;;;10.73;9.65;;;10.90;99.90;;;;;;5114612;28;20647;-58
2023/04/10 00:33:51;;;;;;;11.73;10.52;;;10.80;99.90;;;;;;5114983;28;20177;-59
2023/04/10 00:36:18;;;;;;;11.05;10.02;;;10.80;99.90;;;;;;5114912;28;20631;-58
2023/04/10 00:38:44;;;;;;;11.45;10.35;;;10.80;99.90;;;;;;5114868;28;20534;-60
2023/04/10 00:41:09;;;;;;;10.32;9.35;;;10.70;99.90;;;;;;5114494;28;20180;-59
2023/04/10 00:43:35;;;;;;;11.52;10.43;;;10.70;99.90;;;;;;5114518;28;20183;-58
2023/04/10 00:46:01;;;;;;;11.65;10.55;;;10.70;99.90;;;;;;5114493;28;20311;-58
2023/04/10 00:48:27;;;;;;;12.18;11.00;;;10.70;99.90;;;;;;5114614;28;20228;-59
2023/04/10 00:50:53;;;;;;;11.15;10.07;;;10.70;99.90;;;;;;5114593;28;20165;-59
2023/04/10 00:53:19;;;;;;;12.70;11.48;;;10.70;99.90;;;;;;5114489;28;20177;-58
2023/04/10 00:55:45;;;;;;;11.50;10.30;;;10.80;99.90;;;;;;5114303;28;20195;-59
2023/04/10 00:58:13;;;;;;;12.13;10.77;;;10.70;99.90;;;;;;5114592;28;20234;-59
2023/04/10 01:00:40;;;;;;;11.30;10.18;;;10.70;99.90;;;;;;5114038;28;20177;-59
2023/04/10 01:03:07;;;;;;;11.93;10.63;;;10.70;99.90;;;;;;5114371;28;20173;-59
2023/04/10 01:05:44;;;;;;;11.95;10.85;;;10.70;99.90;;;;;;5114379;28;20635;-58
2023/04/10 01:08:26;;;;;;;11.77;10.68;;;10.70;99.90;;;;;;5114291;28;20254;-58
2023/04/10 01:11:16;;;;;;;10.75;9.65;;;10.80;99.90;;;;;;5114125;28;20220;-59
2023/04/10 01:14:18;;;;;;;10.98;9.88;;;10.80;99.90;;;;;;5095969;28;20226;-58
2023/04/10 01:17:00;;;;;;;11.30;10.20;;;10.80;99.90;;;;;;5114107;28;20165;-58
2023/04/10 01:19:59;;;;;;;11.23;10.13;;;10.80;99.90;;;;;;5113816;28;20265;-58
2023/04/10 01:22:33;;;;;;;10.50;9.60;;;10.90;99.90;;;;;;5114117;28;20172;-58
2023/04/10 01:25:37;;;;;;;9.93;9.02;;;11.00;99.90;;;;;;5113475;28;20257;-58
2023/04/10 01:28:18;;;;;;;10.82;9.68;;;11.10;99.90;;;;;;5113989;28;20192;-59
2023/04/10 01:30:46;;;;;;;9.80;8.90;;;11.10;99.90;;;;;;5114210;28;20211;-58
2023/04/10 01:33:16;;;;;;;9.95;8.60;;;11.10;99.90;;;;;;5113877;28;20172;-59
2023/04/10 01:35:46;;;;;;;10.05;8.90;;;11.20;99.90;;;;;;5113605;28;20181;-59
2023/04/10 01:38:14;;;;;;;8.73;7.90;;;11.20;99.90;;;;;;5113644;28;20177;-58
2023/04/10 01:40:47;;;;;;;10.55;9.02;;;11.20;99.90;;;;;;5114005;28;20267;-59
2023/04/10 01:43:14;;;;;;;9.55;8.65;;;11.10;99.90;;;;;;5113821;28;20207;-58
2023/04/10 01:45:42;;;;;;;9.65;8.68;;;11.10;99.90;;;;;;5113740;28;20183;-58
2023/04/10 01:48:09;;;;;;;8.68;7.78;;;11.20;99.90;;;;;;5113163;28;20237;-59
2023/04/10 01:50:35;;;;;;;8.23;7.50;;;11.20;99.90;;;;;;5113522;28;20252;-59
2023/04/10 01:53:04;;;;;;;9.27;7.70;;;11.20;99.90;;;;;;5113683;28;20247;-58
2023/04/10 01:55:32;;;;;;;10.55;7.68;;;11.20;99.90;;;;;;5113913;28;20295;-58
2023/04/10 01:57:58;;;;;;;8.15;7.38;;;11.20;99.90;;;;;;5113584;28;20184;-58
2023/04/10 02:00:24;;;;;;;7.90;7.15;;;11.20;99.90;;;;;;5113498;28;20539;-58
2023/04/10 02:02:50;;;;;;;8.38;7.38;;;11.10;99.90;;;;;;5113364;28;20173;-58
2023/04/10 02:05:16;;;;;;;8.10;7.30;;;11.10;99.90;;;;;;5113275;28;20252;-58
2023/04/10 02:07:45;;;;;;;8.65;7.10;;;11.10;99.90;;;;;;5113443;28;20213;-58
2023/04/10 02:10:33;;;;;;;7.45;6.75;;;11.10;99.90;;;;;;5113555;28;20635;-58
2023/04/10 02:13:06;;;;;;;7.63;6.90;;;11.10;99.90;;;;;;5113515;28;20212;-58
2023/04/10 02:15:33;;;;;;;7.28;6.57;;;11.10;99.90;;;;;;5113305;28;20165;-58
2023/04/10 02:18:03;;;;;;;7.38;6.68;;;11.10;99.90;;;;;;5113221;28;20173;-59
2023/04/10 02:20:31;;;;;;;6.53;5.88;;;11.00;99.90;;;;;;5113469;28;20169;-59
2023/04/10 02:23:02;;;;;;;6.85;6.18;;;11.00;99.90;;;;;;5113314;28;20662;-58
2023/04/10 02:25:31;;;;;;;8.05;6.57;;;11.00;99.90;;;;;;5113254;28;20170;-59
2023/04/10 02:27:57;;;;;;;7.25;6.55;;;10.90;99.90;;;;;;5113204;28;20243;-59
2023/04/10 02:30:23;;;;;;;7.85;7.05;;;10.90;99.90;;;;;;5113069;28;20584;-59
2023/04/10 02:32:49;;;;;;;7.55;6.22;;;10.80;99.90;;;;;;5113349;28;20260;-59
2023/04/10 02:35:15;;;;;;;6.22;5.68;;;10.80;99.90;;;;;;5113273;28;20256;-58
2023/04/10 02:37:41;;;;;;;7.20;6.13;;;10.70;99.90;;;;;;5116110;28;20181;-58
2023/04/10 02:40:08;;;;;;;7.65;6.22;;;10.70;99.90;;;;;;5116924;28;20177;-58
2023/04/10 02:42:33;;;;;;;6.80;6.15;;;10.70;99.90;;;;;;5116911;28;20173;-59
2023/04/10 02:44:59;;;;;;;6.40;5.80;;;10.70;99.90;;;;;;5116859;28;20326;-58
2023/04/10 02:47:25;;;;;;;7.68;6.00;;;10.70;99.90;;;;;;5116707;28;20233;-59
2023/04/10 02:49:50;;;;;;;6.45;5.80;;;10.70;99.90;;;;;;5117005;28;20173;-59
2023/04/10 02:52:16;;;;;;;6.20;5.68;;;10.70;99.90;;;;;;5116923;28;20514;-59
2023/04/10 02:54:42;;;;;;;6.63;6.03;;;10.70;99.90;;;;;;5116773;28;20264;-59
2023/04/10 02:57:08;;;;;;;6.82;6.13;;;10.70;99.90;;;;;;5116684;28;20180;-59
2023/04/10 02:59:33;;;;;;;6.47;5.88;;;10.70;99.90;;;;;;5116639;28;20185;-58
2023/04/10 03:01:59;;;;;;;6.32;5.72;;;10.70;99.90;;;;;;5116818;28;20173;-58
2023/04/10 03:04:25;;;;;;;6.97;5.53;;;10.70;99.90;;;;;;5116734;28;20260;-58
2023/04/10 03:06:50;;;;;;;5.72;5.28;;;10.70;99.90;;;;;;5116662;28;20627;-58
2023/04/10 03:09:16;;;;;;;6.95;5.68;;;10.70;99.90;;;;;;5116384;28;20575;-59
2023/04/10 03:11:42;;;;;;;6.05;5.45;;;10.60;99.90;;;;;;5116435;28;20636;-58
2023/04/10 03:14:08;;;;;;;6.15;5.55;;;10.70;99.90;;;;;;5116326;28;20174;-59
2023/04/10 03:16:34;;;;;;;6.72;6.13;;;10.70;99.90;;;;;;5116126;28;20178;-58
2023/04/10 03:19:00;;;;;;;6.00;5.43;;;10.80;99.90;;;;;;5115725;28;20193;-59
2023/04/10 03:21:26;;;;;;;5.97;5.45;;;10.70;99.90;;;;;;5116385;28;20260;-59
2023/04/10 03:23:51;;;;;;;6.15;5.55;;;10.70;99.90;;;;;;5116195;28;20169;-58
2023/04/10 03:26:17;;;;;;;5.80;5.30;;;10.70;99.90;;;;;;5116185;28;20177;-58
2023/04/10 03:28:43;;;;;;;6.53;5.88;;;10.70;99.90;;;;;;5115829;28;20201;-58
2023/04/10 03:31:11;;;;;;;5.88;5.38;;;10.60;99.90;;;;;;5116216;28;20182;-58
2023/04/10 03:33:36;;;;;;;5.95;5.45;;;10.60;99.90;;;;;;5098261;28;20174;-58
2023/04/10 03:36:03;;;;;;;6.60;5.95;;;10.50;99.90;;;;;;5116027;28;20177;-59
2023/04/10 03:38:29;;;;;;;6.43;5.82;;;10.60;99.90;;;;;;5116075;28;20184;-58
2023/04/10 03:40:54;;;;;;;5.97;5.47;;;10.50;99.90;;;;;;5115896;28;20535;-58
2023/04/10 03:43:20;;;;;;;5.95;5.35;;;10.50;99.90;;;;;;5115614;28;20173;-59
2023/04/10 03:45:46;;;;;;;6.30;5.70;;;10.50;99.90;;;;;;5115908;28;20173;-59
2023/04/10 03:48:12;;;;;;;6.47;5.82;;;10.40;99.90;;;;;;5115239;28;20270;-58
2023/04/10 03:50:38;;;;;;;6.78;6.07;;;10.40;99.90;;;;;;5115803;28;20169;-58
2023/04/10 03:53:03;;;;;;;5.65;5.15;;;10.40;99.90;;;;;;5115656;28;20169;-58
2023/04/10 03:55:29;;;;;;;6.68;6.07;;;10.40;99.90;;;;;;5115634;28;20641;-58
2023/04/10 03:57:55;;;;;;;7.03;5.70;;;10.40;99.90;;;;;;5115374;28;20581;-59
2023/04/10 04:00:21;;;;;;;6.85;5.90;;;10.30;99.90;;;;;;5115658;28;20183;-58
2023/04/10 04:02:50;;;;;;;6.90;6.20;;;10.30;99.90;;;;;;5115828;28;20177;-59
2023/04/10 04:05:17;;;;;;;6.95;6.25;;;10.30;99.90;;;;;;5115459;28;20184;-58
2023/04/10 04:07:42;;;;;;;6.70;6.10;;;10.40;99.90;;;;;;5115281;28;20205;-59
2023/04/10 04:10:08;;;;;;;7.20;6.38;;;10.40;99.90;;;;;;5115307;28;20183;-59
2023/04/10 04:12:34;;;;;;;7.45;6.28;;;10.30;99.90;;;;;;5115129;28;20173;-58
2023/04/10 04:14:59;;;;;;;7.00;6.30;;;10.40;99.90;;;;;;5115311;28;20177;-58
2023/04/10 04:17:25;;;;;;;10.13;6.63;;;10.40;99.90;;;;;;5115318;28;20231;-58
2023/04/10 04:19:51;;;;;;;6.38;5.78;;;10.40;99.90;;;;;;5115197;28;20165;-57
2023/04/10 04:22:16;;;;;;;6.20;5.60;;;10.30;99.90;;;;;;5115103;28;20169;-58
2023/04/10 04:24:42;;;;;;;7.05;6.30;;;10.30;99.90;;;;;;5114954;28;20531;-57
2023/04/10 04:27:08;;;;;;;5.88;5.28;;;10.30;99.90;;;;;;5096709;28;20648;-57
2023/04/10 04:29:33;;;;;;;6.50;5.90;;;10.30;99.90;;;;;;5114995;28;20270;-58
2023/04/10 04:31:59;;;;;;;6.63;5.90;;;10.40;99.90;;;;;;5114798;28;20169;-57
2023/04/10 04:34:24;;;;;;;7.45;5.75;;;10.40;99.90;;;;;;5114895;28;20264;-58
2023/04/10 04:36:50;;;;;;;7.07;6.25;;;10.40;99.90;;;;;;5114854;28;20180;-57
2023/04/10 04:39:16;;;;;;;7.78;5.85;;;10.40;99.90;;;;;;5114620;28;20183;-58
2023/04/10 04:41:41;;;;;;;7.40;6.15;;;10.40;99.90;;;;;;5114555;28;20574;-57
2023/04/10 04:44:08;;;;;;;6.25;5.65;;;10.40;99.90;;;;;;5114835;28;20243;-57
2023/04/10 04:46:34;;;;;;;6.22;5.30;;;10.40;99.90;;;;;;5114565;28;20173;-59
2023/04/10 04:48:59;;;;;;;7.28;6.00;;;10.40;99.90;;;;;;5114618;28;20224;-59
2023/04/10 04:51:25;;;;;;;8.18;6.28;;;10.40;99.90;;;;;;5114611;28;20540;-57
2023/04/10 04:53:52;;;;;;;7.25;6.07;;;10.40;99.90;;;;;;5114594;28;20205;-59
2023/04/10 04:56:17;;;;;;;6.85;5.47;;;10.40;99.90;;;;;;5114221;28;20595;-59
2023/04/10 04:58:43;;;;;;;5.85;5.25;;;10.40;99.90;;;;;;5113537;28;20201;-60
2023/04/10 05:01:09;;;;;;;6.22;5.63;;;10.40;99.90;;;;;;5114203;28;20524;-59
2023/04/10 05:03:35;;;;;;;6.28;5.68;;;10.40;99.90;;;;;;5114294;28;20233;-59
2023/04/10 05:06:00;;;;;;;6.13;5.38;;;10.40;99.90;;;;;;5114189;28;20166;-59
2023/04/10 05:08:26;;;;;;;5.95;5.28;;;10.40;99.90;;;;;;5114059;28;20236;-59
2023/04/10 05:10:51;;;;;;;6.75;5.60;;;10.40;99.90;;;;;;5114052;28;20169;-59
2023/04/10 05:13:17;;;;;;;6.47;5.53;;;10.40;99.90;;;;;;5130203;27;20181;-59
2023/04/10 05:15:43;;;;;;;7.18;5.25;;;10.40;99.90;;;;;;5114204;28;20646;-59
2023/04/10 05:18:10;;;;;;;6.00;5.40;;;10.40;99.90;;;;;;5113997;28;20169;-59
2023/04/10 05:20:36;;;;;;;6.28;5.57;;;10.40;99.90;;;;;;5113984;28;20624;-59
2023/04/10 05:23:02;;;;;;;7.18;5.85;;;10.40;99.90;;;;;;5113968;28;20177;-58
2023/04/10 05:25:27;;;;;;;6.28;5.68;;;10.40;99.90;;;;;;5113871;28;20527;-59
2023/04/10 05:27:53;;;;;;;6.28;5.68;;;10.40;99.90;;;;;;5114117;28;20209;-58
2023/04/10 05:30:19;;;;;;;6.43;5.55;;;10.40;99.90;;;;;;5113699;28;20176;-58
2023/04/10 05:32:45;;;;;;;6.00;5.40;;;10.40;99.90;;;;;;5113845;28;20172;-58
2023/04/10 05:35:11;;;;;;;6.00;5.40;;;10.50;99.90;;;;;;5113811;28;20279;-58
2023/04/10 05:37:37;;;;;;;5.88;5.13;;;10.50;99.90;;;;;;5113678;28;20173;-59
2023/04/10 05:40:03;;;;;;;6.03;5.40;;;10.50;99.90;;;;;;5113584;28;20176;-59
2023/04/10 05:42:29;;;;;;;6.15;5.53;;;10.60;99.90;;;;;;5113841;28;20577;-59
2023/04/10 05:44:55;;;;;;;6.22;5.40;;;10.50;99.90;;;;;;5113738;28;20165;-59
2023/04/10 05:47:20;;;;;;;6.07;5.47;;;10.60;99.90;;;;;;5113739;28;20550;-59
2023/04/10 05:49:46;;;;;;;6.03;5.50;;;10.60;99.90;;;;;;5113612;28;20192;-58
2023/04/10 05:52:11;;;;;;;6.43;5.68;;;10.60;99.90;;;;;;5113633;28;20174;-58
2023/04/10 05:54:37;;;;;;;6.30;5.43;;;10.60;99.90;;;;;;5112653;28;20178;-59
2023/04/10 05:57:03;;;;;;;6.13;5.60;;;10.70;99.90;;;;;;5112996;28;20181;-59
2023/04/10 05:59:29;;;;;;;11.25;6.35;;;10.60;99.90;;;;;;5113031;28;20252;-57
2023/04/10 06:01:56;;;;;;;5.90;5.30;;;10.70;99.90;;;;;;5112852;28;20174;-59
2023/04/10 06:04:22;;;;;;;6.30;5.70;;;10.60;99.90;;;;;;5113462;28;20200;-58
2023/04/10 06:06:47;;;;;;;6.85;5.07;;;10.70;99.90;;;;;;5113317;28;20169;-59
2023/04/10 06:09:13;;;;;;;5.97;5.22;;;10.70;99.90;;;;;;5113129;28;20710;-59
2023/04/10 06:11:39;;;;;;;6.20;5.60;;;10.70;99.90;;;;;;5115802;28;20197;-57
2023/04/10 06:14:05;;;;;;;6.55;5.47;;;10.80;99.90;;;;;;5116571;28;20218;-57
2023/04/10 06:16:31;;;;;;;5.47;4.97;;;10.80;99.90;;;;;;5117342;28;20256;-60
2023/04/10 06:18:57;;;;;;;5.53;5.05;;;10.80;99.90;;;;;;5116192;28;20194;-59
2023/04/10 06:21:23;;;;;;;5.78;5.15;;;10.90;99.90;;;;;;5114193;28;20303;-59
2023/04/10 06:23:48;;;;;;;5.93;5.32;;;10.90;99.90;;;;;;5115889;28;20252;-59
2023/04/10 06:26:14;;;;;;;6.85;5.40;;;10.90;99.90;;;;;;5117558;28;20633;-59
2023/04/10 06:28:40;;;;;;;8.25;6.07;;;11.00;99.90;;;;;;5098883;28;20205;-59
2023/04/10 06:31:06;;;;;;;5.90;5.40;;;11.00;99.90;;;;;;5117113;28;20185;-59
2023/04/10 06:33:34;;;;;;;5.57;5.07;;;11.00;99.90;;;;;;5116939;28;20662;-58
2023/04/10 06:36:00;;;;;;;6.25;5.63;;;11.00;99.90;;;;;;5116905;28;20176;-59
2023/04/10 06:38:26;;;;;;;6.57;5.90;;;11.10;99.90;;;;;;5116366;28;20189;-57
2023/04/10 06:40:52;;;;;;;6.78;5.97;;;11.00;99.90;;;;;;5117194;28;20169;-58
2023/04/10 06:43:18;;;;;;;6.28;5.60;;;11.10;99.90;;;;;;5116788;28;20652;-59
2023/04/10 06:45:44;;;;;;;6.35;5.75;;;11.10;99.90;;;;;;5116736;28;20181;-59
2023/04/10 06:48:10;;;;;;;5.57;5.05;;;11.20;99.90;;;;;;5116550;28;20232;-58
2023/04/10 06:50:36;;;;;;;6.30;5.70;;;11.20;99.90;;;;;;5116760;28;20173;-58
2023/04/10 06:53:02;;;;;;;6.72;5.72;;;11.30;99.90;;;;;;5116465;28;20256;-58
2023/04/10 06:55:28;;;;;;;6.10;5.47;;;11.30;99.90;;;;;;5116254;28;20512;-58
2023/04/10 06:57:55;;;;;;;5.35;4.85;;;11.40;99.90;;;;;;5116707;28;20264;-59
2023/04/10 07:00:21;;;;;;;6.00;5.10;;;11.40;99.90;;;;;;5116507;28;20209;-59
2023/04/10 07:02:47;;;;;;;7.90;5.45;;;11.50;99.90;;;;;;5116554;28;20181;-58
2023/04/10 07:05:14;;;;;;;6.63;5.32;;;11.60;99.90;;;;;;5116387;28;20182;-59
2023/04/10 07:07:40;;;;;;;5.75;5.22;;;11.70;99.90;;;;;;5116228;28;20176;-58
2023/04/10 07:10:07;;;;;;;6.10;5.50;;;11.70;99.90;;;;;;5115793;28;20173;-59
2023/04/10 07:12:33;;;;;;;5.47;4.95;;;11.90;99.90;;;;;;5116592;28;20651;-59
2023/04/10 07:14:59;;;;;;;6.10;5.47;;;11.90;99.90;;;;;;5116271;28;20173;-59
2023/04/10 07:17:25;;;;;;;5.40;4.85;;;12.00;99.90;;;;;;5116390;28;20185;-59
2023/04/10 07:19:50;;;;;;;9.27;5.60;;;12.00;99.90;;;;;;5116335;28;20178;-58
2023/04/10 07:22:16;;;;;;;6.00;4.82;;;12.00;99.90;;;;;;5115533;28;20508;-58
2023/04/10 07:24:42;;;;;;;5.45;4.95;;;12.10;99.90;;;;;;5116126;28;20619;-58
2023/04/10 07:27:07;;;;;;;5.32;4.82;;;12.10;99.90;;;;;;5116255;28;20177;-58
2023/04/10 07:29:33;;;;;;;5.47;4.90;;;12.20;99.90;;;;;;5116078;28;20205;-57
2023/04/10 07:31:59;;;;;;;5.63;4.97;;;12.20;99.90;;;;;;5116132;28;20174;-58
2023/04/10 07:34:25;;;;;;;6.63;5.07;;;12.30;99.90;;;;;;5115921;28;20178;-57
2023/04/10 07:36:51;;;;;;;5.28;4.78;;;12.40;99.90;;;;;;5115925;28;20201;-59
2023/04/10 07:39:17;;;;;;;5.47;4.95;;;12.40;99.90;;;;;;5116028;28;20180;-58
2023/04/10 07:41:43;;;;;;;5.47;4.88;;;12.40;99.90;;;;;;5115982;28;20199;-57
2023/04/10 07:44:09;;;;;;;7.05;5.45;;;12.40;99.90;;;;;;5115716;28;20243;-60
2023/04/10 07:46:35;;;;;;;5.57;4.97;;;12.50;99.90;;;;;;5115622;28;20660;-59
2023/04/10 07:49:00;;;;;;;6.07;5.10;;;12.50;99.90;;;;;;5115785;28;20209;-59
2023/04/10 07:51:27;;;;;;;6.22;5.53;;;12.60;99.90;;;;;;5115635;28;20174;-59
2023/04/10 07:53:53;;;;;;;5.85;5.25;;;12.70;99.90;;;;;;5115802;28;20277;-59
2023/04/10 07:56:20;;;;;;;5.20;4.75;;;12.80;99.90;;;;;;5115693;28;20639;-59
2023/04/10 07:58:46;;;;;;;4.93;4.47;;;13.00;99.90;;;;;;5115495;28;20637;-59
2023/04/10 08:01:12;;;;;;;5.57;5.07;;;13.10;99.90;;;;;;5115410;28;20535;-59
2023/04/10 08:03:42;;;;;;;7.72;5.00;;;13.30;99.90;;;;;;5115387;28;20177;-58
2023/04/10 08:06:09;;;;;;;5.20;4.70;;;13.40;99.90;;;;;;5115356;28;20264;-59
2023/04/10 08:08:36;;;;;;;5.80;5.30;;;13.50;99.90;;;;;;5115244;28;20205;-59
2023/04/10 08:11:03;;;;;;;5.55;4.45;;;13.50;99.90;;;;;;5115471;28;20177;-59
2023/04/10 08:13:29;;;;;;;5.18;4.68;;;13.60;99.90;;;;;;5115157;28;20524;-58
2023/04/10 08:15:54;;;;;;;5.60;4.72;;;13.60;99.90;;;;;;5115200;28;20267;-58
2023/04/10 08:18:20;;;;;;;4.90;4.50;;;13.60;99.90;;;;;;5115007;28;20547;-58
2023/04/10 08:20:46;;;;;;;4.70;4.30;;;13.70;99.90;;;;;;5114999;28;20165;-58
2023/04/10 08:23:11;;;;;;;4.72;4.32;;;13.70;99.90;;;;;;5115051;28;20173;-59
2023/04/10 08:25:37;;;;;;;5.32;4.82;;;13.60;99.90;;;;;;5115192;28;20180;-58
2023/04/10 08:28:03;;;;;;;6.35;4.57;;;13.60;99.90;;;;;;5115146;28;20559;-58
2023/04/10 08:30:28;;;;;;;4.82;4.30;;;13.70;99.90;;;;;;5114857;28;20536;-58
2023/04/10 08:32:55;;;;;;;5.22;4.72;;;13.70;99.90;;;;;;5114940;28;20180;-58
2023/04/10 08:35:20;;;;;;;4.88;4.38;;;13.80;99.90;;;;;;5114745;28;20194;-58
2023/04/10 08:37:49;;;;;;;4.50;4.05;;;13.90;99.90;;;;;;5115258;28;20174;-58
2023/04/10 08:40:15;;;;;;;4.95;4.43;;;13.90;99.90;;;;;;5114885;28;20177;-57
2023/04/10 08:42:41;;;;;;;4.55;4.15;;;13.90;99.90;;;;;;5114819;28;20538;-58
2023/04/10 08:45:07;;;;;;;5.07;4.55;;;13.90;99.90;;;;;;5114623;28;20197;-58
2023/04/10 08:47:38;;;;;;;4.95;4.45;;;13.90;99.90;;;;;;5114679;28;20321;-57
2023/04/10 08:50:09;;;;;;;4.75;4.22;;;14.00;99.90;;;;;;5114461;28;20724;-58
2023/04/10 08:52:41;;;;;;;4.88;4.30;;;13.90;99.90;;;;;;5114726;28;20161;-58
2023/04/10 08:55:09;;;;;;;4.50;4.10;;;13.90;99.90;;;;;;5114546;28;20531;-57
2023/04/10 08:57:37;;;;;;;4.70;4.30;;;14.00;99.90;;;;;;5114488;28;20176;-57
2023/04/10 09:00:03;;;;;;;5.40;4.30;;;14.00;99.90;;;;;;5114303;28;20201;-58
2023/04/10 09:02:28;;;;;;;4.63;4.22;;;14.20;99.90;;;;;;5114313;28;20181;-58
2023/04/10 09:04:57;;;;;;;5.30;4.80;;;14.30;99.90;;;;;;5114460;28;20180;-58
2023/04/10 09:07:23;;;;;;;5.55;4.28;;;14.40;99.90;;;;;;5114324;28;20620;-58
2023/04/10 09:09:49;;;;;;;4.95;4.47;;;14.40;99.90;;;;;;5114547;28;20230;-58
2023/04/10 09:12:15;;;;;;;4.75;4.13;;;14.50;99.90;;;;;;5114279;28;20623;-58
2023/04/10 09:14:42;;;;;;;4.53;4.13;;;14.40;99.90;;;;;;5114132;28;20627;-58
2023/04/10 09:17:21;;;;;;;4.55;4.10;;;14.60;99.90;;;;;;5113531;28;20191;-58
2023/04/10 09:19:48;;;;;;;5.82;4.38;;;14.70;99.90;;;;;;5113528;28;20572;-57
2023/04/10 09:22:15;;;;;;;4.80;4.40;;;14.70;99.90;;;;;;5113729;28;20359;-58
2023/04/10 09:24:46;;;;;;;4.85;4.20;;;14.80;99.90;;;;;;5112999;28;20189;-58
2023/04/10 09:27:30;;;;;;;4.72;4.20;;;14.90;99.90;;;;;;5113877;28;20165;-58
2023/04/10 09:29:56;;;;;;;4.50;4.10;;;15.00;99.90;;;;;;5113855;28;20702;-58
2023/04/10 09:32:43;;;;;;;4.00;3.70;;;15.00;99.90;;;;;;5113804;28;20213;-58
2023/04/10 09:35:11;;;;;;;5.25;4.20;;;15.00;99.90;;;;;;5113874;28;20207;-58
2023/04/10 09:37:38;;;;;;;4.22;3.83;;;15.10;99.90;;;;;;5113783;28;20173;-58
2023/04/10 09:40:04;;;;;;;4.53;4.13;;;15.20;99.90;;;;;;5113609;28;20197;-59
2023/04/10 09:42:31;;;;;;;4.55;4.15;;;15.20;99.90;;;;;;5113782;28;20193;-58
2023/04/10 09:44:58;;;;;;;5.30;4.30;;;15.30;99.90;;;;;;5113362;28;20521;-58
2023/04/10 09:47:24;;;;;;;4.80;4.38;;;15.40;99.90;;;;;;5113441;28;20224;-58
2023/04/10 09:49:51;;;;;;;5.82;4.43;;;15.40;99.90;;;;;;5113584;28;20689;-58
2023/04/10 09:52:25;;;;;;;4.47;4.07;;;15.50;99.90;;;;;;5113571;28;20254;-58
2023/04/10 09:54:52;;;;;;;5.07;3.65;;;15.50;99.90;;;;;;5113779;28;20162;-58
2023/04/10 09:57:19;;;;;;;4.50;4.10;;;15.50;99.90;;;;;;5113693;28;20627;-58
2023/04/10 09:59:50;;;;;;;5.78;3.60;;;15.70;99.90;;;;;;5113490;28;20177;-58
2023/04/10 10:02:17;;;;;;;4.15;3.75;;;15.80;99.90;;;;;;5113546;28;20188;-58
2023/04/10 10:04:46;;;;;;;7.57;4.13;;;15.90;99.90;;;;;;5113467;28;20180;-57
2023/04/10 10:07:17;;;;;;;4.85;4.43;;;16.00;99.90;;;;;;5095059;28;20633;-58
2023/04/10 10:09:44;;;;;;;4.32;3.92;;;16.10;99.90;;;;;;5113575;28;20272;-58
2023/04/10 10:12:14;;;;;;;4.30;3.90;;;16.10;99.90;;;;;;5113477;28;20180;-58
2023/04/10 10:14:59;;;;;;;4.97;4.50;;;16.20;99.90;;;;;;5113399;28;20169;-58
2023/04/10 10:17:33;;;;;;;4.45;4.05;;;16.30;99.90;;;;;;5113314;28;20180;-58
2023/04/10 10:19:59;;;;;;;4.22;3.83;;;16.20;99.90;;;;;;5113274;28;20165;-58
2023/04/10 10:22:27;;;;;;;4.20;3.80;;;16.40;99.90;;;;;;5113152;28;20672;-58
2023/04/10 10:24:55;;;;;;;3.78;3.47;;;16.50;99.90;;;;;;5113214;28;20268;-58
2023/04/10 10:27:22;;;;;;;5.00;4.50;;;16.60;99.90;;;;;;5113167;28;20623;-58
2023/04/10 10:29:52;;;;;;;4.65;4.25;;;16.70;99.90;;;;;;5094945;28;20214;-58
2023/04/10 10:32:19;;;;;;;4.38;3.97;;;16.80;99.90;;;;;;5113175;28;20256;-58
2023/04/10 10:34:46;;;;;;;4.13;3.83;;;16.70;99.90;;;;;;5095050;28;20547;-58
2023/04/10 10:37:12;;;;;;;6.43;3.92;;;16.70;99.90;;;;;;5113201;28;20173;-58
2023/04/10 10:39:57;;;;;;;4.20;3.80;;;16.50;99.90;;;;;;5113286;28;20276;-57
2023/04/10 10:42:29;;;;;;;4.72;4.32;;;16.50;99.90;;;;;;5113202;28;20200;-58
2023/04/10 10:45:18;;;;;;;4.65;3.95;;;16.60;99.90;;;;;;5113101;28;20174;-58
2023/04/10 10:47:48;;;;;;;4.68;3.90;;;16.70;99.90;;;;;;5113000;28;20251;-58
2023/04/10 10:50:14;;;;;;;4.70;4.30;;;16.70;99.90;;;;;;5094832;28;20551;-58
2023/04/10 10:52:54;;;;;;;4.28;3.78;;;16.70;99.90;;;;;;5113053;28;20176;-58
2023/04/10 10:55:27;;;;;;;4.50;4.10;;;16.70;99.90;;;;;;5113079;28;20653;-58
2023/04/10 10:57:54;;;;;;;4.78;4.00;;;16.80;99.90;;;;;;5114825;28;20199;-58
2023/04/10 11:00:25;;;;;;;4.07;3.67;;;16.70;99.90;;;;;;5116807;28;20264;-58
2023/04/10 11:03:11;;;;;;;4.82;3.92;;;16.70;99.90;;;;;;5116719;28;20174;-58
2023/04/10 11:05:57;;;;;;;4.80;3.90;;;16.70;99.90;;;;;;5116476;28;20169;-58
2023/04/10 11:08:32;;;;;;;4.53;4.00;;;16.70;99.90;;;;;;5116901;28;20285;-58
2023/04/10 11:11:02;;;;;;;5.20;3.90;;;16.70;99.90;;;;;;5116520;28;20256;-58
2023/04/10 11:13:28;;;;;;;4.43;4.03;;;16.60;99.90;;;;;;5116501;28;20489;-58
2023/04/10 11:15:56;;;;;;;6.60;4.20;;;16.60;99.90;;;;;;5114967;28;20180;-58
2023/04/10 11:18:43;;;;;;;5.88;4.22;;;16.60;99.90;;;;;;5115299;28;20184;-58
2023/04/10 11:21:14;;;;;;;5.10;4.20;;;16.60;99.90;;;;;;5116137;28;20166;-58
2023/04/10 11:23:52;;;;;;;5.97;3.90;;;16.60;99.90;;;;;;5116141;28;20527;-58
2023/04/10 11:26:42;;;;;;;5.80;3.78;;;16.60;99.90;;;;;;5115740;28;20567;-58
2023/04/10 11:29:17;;;;;;;4.18;3.78;;;16.60;99.90;;;;;;5115937;28;20209;-58
2023/04/10 11:31:54;;;;;;;4.90;4.10;;;16.60;99.90;;;;;;5114495;28;20173;-58
2023/04/10 11:34:20;;;;;;;5.22;4.28;;;16.70;99.90;;;;;;5115886;28;20169;-58
2023/04/10 11:36:46;;;;;;;5.60;4.47;;;16.50;99.90;;;;;;5115456;28;20530;-58
2023/04/10 11:39:17;;;;;;;6.68;4.70;;;16.50;99.90;;;;;;5115760;28;20650;-58
2023/04/10 11:41:46;;;;;;;5.70;4.22;;;16.40;99.90;;;;;;5115538;28;20631;-58
2023/04/10 11:44:19;;;;;;;4.95;4.22;;;16.30;99.90;;;;;;5115348;28;20185;-58
2023/04/10 11:46:46;;;;;;;5.22;4.68;;;16.20;99.90;;;;;;5115306;28;20589;-57
2023/04/10 11:49:20;;;;;;;8.48;4.18;;;16.30;99.90;;;;;;5114529;28;20197;-58
2023/04/10 11:51:48;;;;;;;23.55;5.70;;;16.30;99.90;;;;;;5114796;28;20178;-58
2023/04/10 11:54:16;;;;;;;9.50;4.47;;;16.30;99.90;;;;;;5115699;28;20177;-57
2023/04/10 11:56:43;;;;;;;5.30;4.30;;;16.20;99.90;;;;;;5113568;28;20178;-58
2023/04/10 11:59:12;;;;;;;5.65;4.55;;;16.20;99.90;;;;;;5114585;28;20177;-58
2023/04/10 12:01:41;;;;;;;5.25;4.40;;;16.20;99.90;;;;;;5115016;28;20554;-58
2023/04/10 12:04:23;;;;;;;5.22;4.00;;;16.10;99.90;;;;;;5114958;28;20211;-58
2023/04/10 12:06:50;;;;;;;5.00;4.50;;;16.10;99.90;;;;;;5113650;28;20197;-57
2023/04/10 12:09:18;;;;;;;5.13;4.45;;;16.00;99.90;;;;;;5114003;28;20208;-58
2023/04/10 12:11:52;;;;;;;4.90;4.40;;;16.10;99.90;;;;;;5114258;28;20185;-58
2023/04/10 12:14:22;;;;;;;7.03;5.10;;;16.10;99.90;;;;;;5114116;28;20218;-58
2023/04/10 12:16:50;;;;;;;6.65;5.20;;;15.90;99.90;;;;;;5114328;28;20173;-58
2023/04/10 12:19:16;;;;;;;6.95;5.15;;;15.80;99.90;;;;;;5114824;28;20196;-58
2023/04/10 12:21:43;;;;;;;5.93;5.32;;;15.60;99.90;;;;;;5115308;28;20199;-58
2023/04/10 12:24:09;;;;;;;6.65;5.22;;;15.40;99.90;;;;;;5115140;28;20174;-58
2023/04/10 12:26:35;;;;;;;6.25;5.63;;;15.40;99.90;;;;;;5114955;28;20169;-58
2023/04/10 12:29:01;;;;;;;6.78;6.03;;;15.40;99.90;;;;;;5114939;28;20292;-58
2023/04/10 12:31:32;;;;;;;6.45;5.85;;;15.30;99.90;;;;;;5115078;28;20177;-58
2023/04/10 12:33:59;;;;;;;6.88;5.30;;;15.30;99.90;;;;;;5114750;28;20539;-58
2023/04/10 12:36:28;;;;;;;6.05;5.50;;;15.30;99.90;;;;;;5114837;28;20180;-59
2023/04/10 12:38:55;;;;;;;6.85;5.85;;;15.30;99.90;;;;;;5114752;28;20181;-58
2023/04/10 12:41:23;;;;;;;6.22;5.63;;;15.20;99.90;;;;;;5114611;28;20181;-58
2023/04/10 12:43:50;;;;;;;8.88;5.78;;;15.20;99.90;;;;;;5114777;28;20230;-58
2023/04/10 12:46:28;;;;;;;7.57;5.85;;;15.20;99.90;;;;;;5096417;28;20166;-58
2023/04/10 12:48:55;;;;;;;6.85;6.20;;;15.30;99.90;;;;;;5114586;28;20567;-58
2023/04/10 12:51:42;;;;;;;6.25;5.63;;;15.30;99.90;;;;;;5114475;28;20188;-58